sensor_id;sensor_type;location;lat;lon;timestamp;temperature;humidity
23160;DHT22;11748;50.844;4.396;2024-01-06T00:02:23;7.70;99.90
23160;DHT22;11748;50.844;4.396;2024-01-06T00:04:48;7.70;99.90
23160;DHT22;11748;50.844;4.396;2024-01-06T00:07:14;7.70;99.90
23160;DHT22;11748;50.844;4.396;2024-01-06T00:09:40;7.80;99.90
23160;DHT22;11748;50.844;4.396;2024-01-06T00:12:06;7.70;99.90
23160;DHT22;11748;50.844;4.396;2024-01-06T00:14:31;7.70;99.90
23160;DHT22;11748;50.844;4.396;2024-01-06T00:16:57;7.70;99.90
23160;DHT22;11748;50.844;4.396;2024-01-06T00:19:23;7.70;99.90
23160;DHT22;11748;50.844;4.396;2024-01-06T00:21:49;7.70;99.90
23160;DHT22;11748;50.844;4.396;2024-01-06T00:24:14;7.70;99.90
23160;DHT22;11748;50.844;4.396;2024-01-06T00:26:40;7.80;99.90
23160;DHT22;11748;50.844;4.396;2024-01-06T00:29:07;7.80;99.90
23160;DHT22;11748;50.844;4.396;2024-01-06T00:31:32;7.80;99.90
23160;DHT22;11748;50.844;4.396;2024-01-06T00:34:00;7.70;99.90
23160;DHT22;11748;50.844;4.396;2024-01-06T00:36:26;7.70;99.90
23160;DHT22;11748;50.844;4.396;2024-01-06T00:38:52;7.80;99.90
23160;DHT22;11748;50.844;4.396;2024-01-06T00:41:17;7.80;99.90
23160;DHT22;11748;50.844;4.396;2024-01-06T00:43:43;7.70;99.90
23160;DHT22;11748;50.844;4.396;2024-01-06T00:46:09;7.70;99.90
23160;DHT22;11748;50.844;4.396;2024-01-06T00:48:34;7.70;99.90
23160;DHT22;11748;50.844;4.396;2024-01-06T00:51:00;7.70;99.90
23160;DHT22;11748;50.844;4.396;2024-01-06T00:53:26;7.80;99.90
23160;DHT22;11748;50.844;4.396;2024-01-06T00:55:51;7.80;99.90
23160;DHT22;11748;50.844;4.396;2024-01-06T00:58:17;7.60;99.90
23160;DHT22;11748;50.844;4.396;2024-01-06T01:00:43;7.70;99.90
23160;DHT22;11748;50.844;4.396;2024-01-06T01:03:08;7.80;99.90
23160;DHT22;11748;50.844;4.396;2024-01-06T01:05:34;7.90;99.90
23160;DHT22;11748;50.844;4.396;2024-01-06T01:08:00;8.00;99.90
23160;DHT22;11748;50.844;4.396;2024-01-06T01:10:26;7.90;99.90
23160;DHT22;11748;50.844;4.396;2024-01-06T01:12:52;7.80;99.90
23160;DHT22;11748;50.844;4.396;2024-01-06T01:15:17;7.80;99.90
23160;DHT22;11748;50.844;4.396;2024-01-06T01:17:43;7.80;99.90
23160;DHT22;11748;50.844;4.396;2024-01-06T01:20:09;7.80;99.90
23160;DHT22;11748;50.844;4.396;2024-01-06T01:22:35;7.80;99.90
23160;DHT22;11748;50.844;4.396;2024-01-06T01:25:01;7.80;99.90
23160;DHT22;11748;50.844;4.396;2024-01-06T01:27:30;7.80;99.90
23160;DHT22;11748;50.844;4.396;2024-01-06T01:29:57;7.80;99.90
23160;DHT22;11748;50.844;4.396;2024-01-06T01:32:23;7.90;99.90
23160;DHT22;11748;50.844;4.396;2024-01-06T01:34:48;7.80;99.90
23160;DHT22;11748;50.844;4.396;2024-01-06T01:37:15;8.00;99.90
23160;DHT22;11748;50.844;4.396;2024-01-06T01:39:41;8.00;99.90
23160;DHT22;11748;50.844;4.396;2024-01-06T01:42:07;8.10;99.90
23160;DHT22;11748;50.844;4.396;2024-01-06T01:44:32;7.80;99.90
23160;DHT22;11748;50.844;4.396;2024-01-06T01:46:58;7.80;99.90
23160;DHT22;11748;50.844;4.396;2024-01-06T01:49:25;7.80;99.90
23160;DHT22;11748;50.844;4.396;2024-01-06T01:51:50;7.80;99.90
23160;DHT22;11748;50.844;4.396;2024-01-06T01:54:16;7.80;99.90
23160;DHT22;11748;50.844;4.396;2024-01-06T01:56:42;7.80;99.90
23160;DHT22;11748;50.844;4.396;2024-01-06T01:59:12;7.80;99.90
23160;DHT22;11748;50.844;4.396;2024-01-06T02:01:39;7.70;99.90
23160;DHT22;11748;50.844;4.396;2024-01-06T02:04:05;7.70;99.90
23160;DHT22;11748;50.844;4.396;2024-01-06T02:06:31;7.70;99.90
23160;DHT22;11748;50.844;4.396;2024-01-06T02:08:57;7.70;99.90
23160;DHT22;11748;50.844;4.396;2024-01-06T02:11:24;7.80;99.90
23160;DHT22;11748;50.844;4.396;2024-01-06T02:13:49;7.80;99.90
23160;DHT22;11748;50.844;4.396;2024-01-06T02:16:15;7.70;99.90
23160;DHT22;11748;50.844;4.396;2024-01-06T02:18:41;7.70;99.90
23160;DHT22;11748;50.844;4.396;2024-01-06T02:21:07;7.70;99.90
23160;DHT22;11748;50.844;4.396;2024-01-06T02:23:35;7.70;99.90
23160;DHT22;11748;50.844;4.396;2024-01-06T02:26:01;7.70;99.90
23160;DHT22;11748;50.844;4.396;2024-01-06T02:28:27;7.80;99.90
23160;DHT22;11748;50.844;4.396;2024-01-06T02:30:53;7.80;99.90
23160;DHT22;11748;50.844;4.396;2024-01-06T02:33:18;7.70;99.90
23160;DHT22;11748;50.844;4.396;2024-01-06T02:35:47;7.70;99.90
23160;DHT22;11748;50.844;4.396;2024-01-06T02:38:13;7.80;99.90
23160;DHT22;11748;50.844;4.396;2024-01-06T02:40:39;7.80;99.90
23160;DHT22;11748;50.844;4.396;2024-01-06T02:43:05;7.70;99.90
23160;DHT22;11748;50.844;4.396;2024-01-06T02:45:30;7.70;99.90
23160;DHT22;11748;50.844;4.396;2024-01-06T02:47:56;7.80;99.90
23160;DHT22;11748;50.844;4.396;2024-01-06T02:50:21;7.80;99.90
23160;DHT22;11748;50.844;4.396;2024-01-06T02:52:47;7.80;99.90
23160;DHT22;11748;50.844;4.396;2024-01-06T02:55:13;7.70;99.90
23160;DHT22;11748;50.844;4.396;2024-01-06T02:57:39;7.80;99.90
23160;DHT22;11748;50.844;4.396;2024-01-06T03:00:07;7.70;99.90
23160;DHT22;11748;50.844;4.396;2024-01-06T03:02:33;7.70;99.90
23160;DHT22;11748;50.844;4.396;2024-01-06T03:04:58;7.80;99.90
23160;DHT22;11748;50.844;4.396;2024-01-06T03:07:24;7.90;99.90
23160;DHT22;11748;50.844;4.396;2024-01-06T03:09:50;7.70;99.90
23160;DHT22;11748;50.844;4.396;2024-01-06T03:12:15;7.70;99.90
23160;DHT22;11748;50.844;4.396;2024-01-06T03:14:41;7.70;99.90
23160;DHT22;11748;50.844;4.396;2024-01-06T03:17:06;7.80;99.90
23160;DHT22;11748;50.844;4.396;2024-01-06T03:19:32;7.90;99.90
23160;DHT22;11748;50.844;4.396;2024-01-06T03:21:58;7.80;99.90
23160;DHT22;11748;50.844;4.396;2024-01-06T03:24:24;7.80;99.90
23160;DHT22;11748;50.844;4.396;2024-01-06T03:26:50;7.80;99.90
23160;DHT22;11748;50.844;4.396;2024-01-06T03:29:16;7.80;99.90
23160;DHT22;11748;50.844;4.396;2024-01-06T03:31:45;7.80;99.90
23160;DHT22;11748;50.844;4.396;2024-01-06T03:34:10;7.80;99.90
23160;DHT22;11748;50.844;4.396;2024-01-06T03:36:37;7.80;99.90
23160;DHT22;11748;50.844;4.396;2024-01-06T03:39:03;7.70;99.90
23160;DHT22;11748;50.844;4.396;2024-01-06T03:41:32;7.70;99.90
23160;DHT22;11748;50.844;4.396;2024-01-06T03:43:58;7.80;99.90
23160;DHT22;11748;50.844;4.396;2024-01-06T03:46:24;8.00;99.90
23160;DHT22;11748;50.844;4.396;2024-01-06T03:48:50;7.90;99.90
23160;DHT22;11748;50.844;4.396;2024-01-06T03:51:15;7.90;99.90
23160;DHT22;11748;50.844;4.396;2024-01-06T03:53:41;7.90;99.90
23160;DHT22;11748;50.844;4.396;2024-01-06T03:56:07;7.90;99.90
23160;DHT22;11748;50.844;4.396;2024-01-06T03:58:33;8.00;99.90
23160;DHT22;11748;50.844;4.396;2024-01-06T04:00:59;8.10;99.90
23160;DHT22;11748;50.844;4.396;2024-01-06T04:03:25;8.00;99.90
23160;DHT22;11748;50.844;4.396;2024-01-06T04:05:50;8.10;99.90
23160;DHT22;11748;50.844;4.396;2024-01-06T04:08:17;8.00;99.90
23160;DHT22;11748;50.844;4.396;2024-01-06T04:10:44;8.00;99.90
23160;DHT22;11748;50.844;4.396;2024-01-06T04:13:11;8.00;99.90
23160;DHT22;11748;50.844;4.396;2024-01-06T04:15:37;8.00;99.90
23160;DHT22;11748;50.844;4.396;2024-01-06T04:18:03;8.10;99.90
23160;DHT22;11748;50.844;4.396;2024-01-06T04:20:30;8.20;99.90
23160;DHT22;11748;50.844;4.396;2024-01-06T04:22:56;8.20;99.90
23160;DHT22;11748;50.844;4.396;2024-01-06T04:25:21;8.00;99.90
23160;DHT22;11748;50.844;4.396;2024-01-06T04:27:47;8.00;99.90
23160;DHT22;11748;50.844;4.396;2024-01-06T04:30:14;8.10;99.90
23160;DHT22;11748;50.844;4.396;2024-01-06T04:32:40;8.10;99.90
23160;DHT22;11748;50.844;4.396;2024-01-06T04:35:06;8.00;99.90
23160;DHT22;11748;50.844;4.396;2024-01-06T04:37:32;8.20;99.90
23160;DHT22;11748;50.844;4.396;2024-01-06T04:39:58;8.20;99.90
23160;DHT22;11748;50.844;4.396;2024-01-06T04:42:23;8.20;99.90
23160;DHT22;11748;50.844;4.396;2024-01-06T04:44:50;8.30;99.90
23160;DHT22;11748;50.844;4.396;2024-01-06T04:47:15;8.20;99.90
23160;DHT22;11748;50.844;4.396;2024-01-06T04:49:41;8.20;99.90
23160;DHT22;11748;50.844;4.396;2024-01-06T04:52:07;8.20;99.90
23160;DHT22;11748;50.844;4.396;2024-01-06T04:54:32;8.20;99.90
23160;DHT22;11748;50.844;4.396;2024-01-06T04:56:59;8.10;99.90
23160;DHT22;11748;50.844;4.396;2024-01-06T04:59:24;8.30;99.90
23160;DHT22;11748;50.844;4.396;2024-01-06T05:01:51;8.30;99.90
23160;DHT22;11748;50.844;4.396;2024-01-06T05:04:18;8.20;99.90
23160;DHT22;11748;50.844;4.396;2024-01-06T05:06:44;8.10;99.90
23160;DHT22;11748;50.844;4.396;2024-01-06T05:09:10;8.10;99.90
23160;DHT22;11748;50.844;4.396;2024-01-06T05:11:36;8.10;99.90
23160;DHT22;11748;50.844;4.396;2024-01-06T05:14:01;8.10;99.90
23160;DHT22;11748;50.844;4.396;2024-01-06T05:16:27;8.20;99.90
23160;DHT22;11748;50.844;4.396;2024-01-06T05:18:53;8.10;99.90
23160;DHT22;11748;50.844;4.396;2024-01-06T05:21:19;8.00;99.90
23160;DHT22;11748;50.844;4.396;2024-01-06T05:23:45;8.00;99.90
23160;DHT22;11748;50.844;4.396;2024-01-06T05:26:10;8.00;99.90
23160;DHT22;11748;50.844;4.396;2024-01-06T05:28:38;7.90;99.90
23160;DHT22;11748;50.844;4.396;2024-01-06T05:31:04;8.00;99.90
23160;DHT22;11748;50.844;4.396;2024-01-06T05:33:29;8.20;99.90
23160;DHT22;11748;50.844;4.396;2024-01-06T05:35:55;8.20;99.90
23160;DHT22;11748;50.844;4.396;2024-01-06T05:38:20;8.20;99.90
23160;DHT22;11748;50.844;4.396;2024-01-06T05:40:46;8.00;99.90
23160;DHT22;11748;50.844;4.396;2024-01-06T05:43:13;8.00;99.90
23160;DHT22;11748;50.844;4.396;2024-01-06T05:45:38;8.00;99.90
23160;DHT22;11748;50.844;4.396;2024-01-06T05:48:10;8.00;99.90
23160;DHT22;11748;50.844;4.396;2024-01-06T05:50:38;8.00;99.90
23160;DHT22;11748;50.844;4.396;2024-01-06T05:53:05;8.10;99.90
23160;DHT22;11748;50.844;4.396;2024-01-06T05:55:31;8.10;99.90
23160;DHT22;11748;50.844;4.396;2024-01-06T05:57:58;8.20;99.90
23160;DHT22;11748;50.844;4.396;2024-01-06T06:00:24;8.10;99.90
23160;DHT22;11748;50.844;4.396;2024-01-06T06:02:49;8.10;99.90
23160;DHT22;11748;50.844;4.396;2024-01-06T06:05:15;8.20;99.90
23160;DHT22;11748;50.844;4.396;2024-01-06T06:07:40;8.10;99.90
23160;DHT22;11748;50.844;4.396;2024-01-06T06:10:08;7.90;99.90
23160;DHT22;11748;50.844;4.396;2024-01-06T06:12:35;7.90;99.90
23160;DHT22;11748;50.844;4.396;2024-01-06T06:15:02;7.90;99.90
23160;DHT22;11748;50.844;4.396;2024-01-06T06:17:30;7.80;99.90
23160;DHT22;11748;50.844;4.396;2024-01-06T06:19:56;7.80;99.90
23160;DHT22;11748;50.844;4.396;2024-01-06T06:22:23;7.90;99.90
23160;DHT22;11748;50.844;4.396;2024-01-06T06:24:48;7.90;99.90
23160;DHT22;11748;50.844;4.396;2024-01-06T06:27:14;7.80;99.90
23160;DHT22;11748;50.844;4.396;2024-01-06T06:29:40;7.70;99.90
23160;DHT22;11748;50.844;4.396;2024-01-06T06:32:05;7.70;99.90
23160;DHT22;11748;50.844;4.396;2024-01-06T06:34:31;7.80;99.90
23160;DHT22;11748;50.844;4.396;2024-01-06T06:36:57;7.90;99.90
23160;DHT22;11748;50.844;4.396;2024-01-06T06:39:24;7.90;99.90
23160;DHT22;11748;50.844;4.396;2024-01-06T06:41:49;7.60;99.90
23160;DHT22;11748;50.844;4.396;2024-01-06T06:44:16;7.50;99.90
23160;DHT22;11748;50.844;4.396;2024-01-06T06:46:42;7.50;99.90
23160;DHT22;11748;50.844;4.396;2024-01-06T06:49:07;7.40;99.90
23160;DHT22;11748;50.844;4.396;2024-01-06T06:51:33;7.40;99.90
23160;DHT22;11748;50.844;4.396;2024-01-06T06:53:59;7.50;99.90
23160;DHT22;11748;50.844;4.396;2024-01-06T06:56:24;7.60;99.90
23160;DHT22;11748;50.844;4.396;2024-01-06T06:58:50;7.60;99.90
23160;DHT22;11748;50.844;4.396;2024-01-06T07:01:15;7.60;99.90
23160;DHT22;11748;50.844;4.396;2024-01-06T07:03:42;7.50;99.90
23160;DHT22;11748;50.844;4.396;2024-01-06T07:06:07;7.40;99.90
23160;DHT22;11748;50.844;4.396;2024-01-06T07:08:33;7.40;99.90
23160;DHT22;11748;50.844;4.396;2024-01-06T07:10:59;7.30;99.90
23160;DHT22;11748;50.844;4.396;2024-01-06T07:13:25;7.30;99.90
23160;DHT22;11748;50.844;4.396;2024-01-06T07:15:52;7.10;99.90
23160;DHT22;11748;50.844;4.396;2024-01-06T07:18:17;7.20;99.90
23160;DHT22;11748;50.844;4.396;2024-01-06T07:20:44;7.20;99.90
23160;DHT22;11748;50.844;4.396;2024-01-06T07:23:10;7.10;99.90
23160;DHT22;11748;50.844;4.396;2024-01-06T07:25:36;7.10;99.90
23160;DHT22;11748;50.844;4.396;2024-01-06T07:28:01;7.30;99.90
23160;DHT22;11748;50.844;4.396;2024-01-06T07:30:27;7.20;99.90
23160;DHT22;11748;50.844;4.396;2024-01-06T07:32:53;7.30;99.90
23160;DHT22;11748;50.844;4.396;2024-01-06T07:35:18;7.40;99.90
23160;DHT22;11748;50.844;4.396;2024-01-06T07:37:44;7.40;99.90
23160;DHT22;11748;50.844;4.396;2024-01-06T07:40:10;7.10;99.90
23160;DHT22;11748;50.844;4.396;2024-01-06T07:42:36;7.00;99.90
23160;DHT22;11748;50.844;4.396;2024-01-06T07:45:01;7.00;99.90
23160;DHT22;11748;50.844;4.396;2024-01-06T07:47:27;6.90;99.90
23160;DHT22;11748;50.844;4.396;2024-01-06T07:49:53;6.70;99.90
23160;DHT22;11748;50.844;4.396;2024-01-06T07:52:19;6.60;99.90
23160;DHT22;11748;50.844;4.396;2024-01-06T07:54:45;6.80;99.90
23160;DHT22;11748;50.844;4.396;2024-01-06T07:57:11;7.10;99.90
23160;DHT22;11748;50.844;4.396;2024-01-06T07:59:37;7.30;99.90
23160;DHT22;11748;50.844;4.396;2024-01-06T08:02:03;7.20;99.90
23160;DHT22;11748;50.844;4.396;2024-01-06T08:04:28;7.20;99.90
23160;DHT22;11748;50.844;4.396;2024-01-06T08:06:54;7.30;99.90
23160;DHT22;11748;50.844;4.396;2024-01-06T08:09:21;7.40;99.90
23160;DHT22;11748;50.844;4.396;2024-01-06T08:11:49;7.30;99.90
23160;DHT22;11748;50.844;4.396;2024-01-06T08:14:14;7.10;99.90
23160;DHT22;11748;50.844;4.396;2024-01-06T08:16:43;6.90;99.90
23160;DHT22;11748;50.844;4.396;2024-01-06T08:19:09;6.90;99.90
23160;DHT22;11748;50.844;4.396;2024-01-06T08:21:34;7.00;99.90
23160;DHT22;11748;50.844;4.396;2024-01-06T08:24:01;7.10;99.90
23160;DHT22;11748;50.844;4.396;2024-01-06T08:26:26;7.10;99.90
23160;DHT22;11748;50.844;4.396;2024-01-06T08:28:52;7.20;99.90
23160;DHT22;11748;50.844;4.396;2024-01-06T08:31:18;7.30;99.90
23160;DHT22;11748;50.844;4.396;2024-01-06T08:33:43;7.20;99.90
23160;DHT22;11748;50.844;4.396;2024-01-06T08:36:09;7.20;99.90
23160;DHT22;11748;50.844;4.396;2024-01-06T08:38:36;7.20;99.90
23160;DHT22;11748;50.844;4.396;2024-01-06T08:41:01;7.10;99.90
23160;DHT22;11748;50.844;4.396;2024-01-06T08:43:27;7.20;99.90
23160;DHT22;11748;50.844;4.396;2024-01-06T08:45:53;7.10;99.90
23160;DHT22;11748;50.844;4.396;2024-01-06T08:48:19;7.10;99.90
23160;DHT22;11748;50.844;4.396;2024-01-06T08:50:45;6.90;99.90
23160;DHT22;11748;50.844;4.396;2024-01-06T08:53:12;6.90;99.90
23160;DHT22;11748;50.844;4.396;2024-01-06T08:55:37;6.90;99.90
23160;DHT22;11748;50.844;4.396;2024-01-06T08:58:03;7.10;99.90
23160;DHT22;11748;50.844;4.396;2024-01-06T09:00:29;6.90;99.90
23160;DHT22;11748;50.844;4.396;2024-01-06T09:02:55;6.90;99.90
23160;DHT22;11748;50.844;4.396;2024-01-06T09:05:20;6.90;99.90
23160;DHT22;11748;50.844;4.396;2024-01-06T09:07:46;6.90;99.90
23160;DHT22;11748;50.844;4.396;2024-01-06T09:10:16;6.80;99.90
23160;DHT22;11748;50.844;4.396;2024-01-06T09:12:42;6.70;99.90
23160;DHT22;11748;50.844;4.396;2024-01-06T09:15:08;6.70;99.90
23160;DHT22;11748;50.844;4.396;2024-01-06T09:17:33;6.60;99.90
23160;DHT22;11748;50.844;4.396;2024-01-06T09:20:00;6.50;99.90
23160;DHT22;11748;50.844;4.396;2024-01-06T09:22:26;6.50;99.90
23160;DHT22;11748;50.844;4.396;2024-01-06T09:24:52;6.50;99.90
23160;DHT22;11748;50.844;4.396;2024-01-06T09:27:18;6.70;99.90
23160;DHT22;11748;50.844;4.396;2024-01-06T09:29:44;6.60;99.90
23160;DHT22;11748;50.844;4.396;2024-01-06T09:32:11;6.60;99.90
23160;DHT22;11748;50.844;4.396;2024-01-06T09:34:38;6.60;99.90
23160;DHT22;11748;50.844;4.396;2024-01-06T09:37:04;6.60;99.90
23160;DHT22;11748;50.844;4.396;2024-01-06T09:39:30;6.70;99.90
23160;DHT22;11748;50.844;4.396;2024-01-06T09:41:57;6.70;99.90
23160;DHT22;11748;50.844;4.396;2024-01-06T09:44:23;6.80;99.90
23160;DHT22;11748;50.844;4.396;2024-01-06T09:46:49;7.00;99.90
23160;DHT22;11748;50.844;4.396;2024-01-06T09:49:18;7.20;99.90
23160;DHT22;11748;50.844;4.396;2024-01-06T09:51:49;7.30;99.90
23160;DHT22;11748;50.844;4.396;2024-01-06T09:54:22;7.00;99.90
23160;DHT22;11748;50.844;4.396;2024-01-06T09:56:49;6.80;99.90
23160;DHT22;11748;50.844;4.396;2024-01-06T09:59:15;6.60;99.90
23160;DHT22;11748;50.844;4.396;2024-01-06T10:01:41;6.60;99.90
23160;DHT22;11748;50.844;4.396;2024-01-06T10:04:07;6.70;99.90
23160;DHT22;11748;50.844;4.396;2024-01-06T10:06:33;6.70;99.90
23160;DHT22;11748;50.844;4.396;2024-01-06T10:08:58;6.70;99.90
23160;DHT22;11748;50.844;4.396;2024-01-06T10:11:25;6.70;99.90
23160;DHT22;11748;50.844;4.396;2024-01-06T10:13:52;6.70;99.90
23160;DHT22;11748;50.844;4.396;2024-01-06T10:16:18;6.70;99.90
23160;DHT22;11748;50.844;4.396;2024-01-06T10:18:44;6.70;99.90
23160;DHT22;11748;50.844;4.396;2024-01-06T10:21:10;6.60;99.90
23160;DHT22;11748;50.844;4.396;2024-01-06T10:23:36;6.60;99.90
23160;DHT22;11748;50.844;4.396;2024-01-06T10:26:02;6.50;99.90
23160;DHT22;11748;50.844;4.396;2024-01-06T10:28:28;6.70;99.90
23160;DHT22;11748;50.844;4.396;2024-01-06T10:30:57;6.50;99.90
23160;DHT22;11748;50.844;4.396;2024-01-06T10:33:25;6.50;99.90
23160;DHT22;11748;50.844;4.396;2024-01-06T10:35:51;6.40;99.90
23160;DHT22;11748;50.844;4.396;2024-01-06T10:38:17;6.40;99.90
23160;DHT22;11748;50.844;4.396;2024-01-06T10:40:59;6.40;99.90
23160;DHT22;11748;50.844;4.396;2024-01-06T10:43:27;6.40;99.90
23160;DHT22;11748;50.844;4.396;2024-01-06T10:45:57;6.40;99.90
23160;DHT22;11748;50.844;4.396;2024-01-06T10:48:25;6.30;99.90
23160;DHT22;11748;50.844;4.396;2024-01-06T10:50:52;6.30;99.90
23160;DHT22;11748;50.844;4.396;2024-01-06T10:53:20;6.40;99.90
23160;DHT22;11748;50.844;4.396;2024-01-06T10:55:49;6.50;99.90
23160;DHT22;11748;50.844;4.396;2024-01-06T10:58:17;6.30;99.90
23160;DHT22;11748;50.844;4.396;2024-01-06T11:00:43;6.50;99.90
23160;DHT22;11748;50.844;4.396;2024-01-06T11:03:09;6.60;99.90
23160;DHT22;11748;50.844;4.396;2024-01-06T11:05:36;6.60;99.90
23160;DHT22;11748;50.844;4.396;2024-01-06T11:08:04;6.70;99.90
23160;DHT22;11748;50.844;4.396;2024-01-06T11:10:30;6.70;99.90
23160;DHT22;11748;50.844;4.396;2024-01-06T11:13:14;6.80;99.90
23160;DHT22;11748;50.844;4.396;2024-01-06T11:15:48;6.80;99.90
23160;DHT22;11748;50.844;4.396;2024-01-06T11:18:36;6.70;99.90
23160;DHT22;11748;50.844;4.396;2024-01-06T11:26:32;6.40;99.90
23160;DHT22;11748;50.844;4.396;2024-01-06T11:29:00;6.50;99.90
23160;DHT22;11748;50.844;4.396;2024-01-06T11:31:30;6.60;99.90
23160;DHT22;11748;50.844;4.396;2024-01-06T11:33:56;6.50;99.90
23160;DHT22;11748;50.844;4.396;2024-01-06T11:36:22;6.40;99.90
23160;DHT22;11748;50.844;4.396;2024-01-06T11:38:48;6.50;99.90
23160;DHT22;11748;50.844;4.396;2024-01-06T11:41:47;6.50;99.90
23160;DHT22;11748;50.844;4.396;2024-01-06T11:44:13;6.50;99.90
23160;DHT22;11748;50.844;4.396;2024-01-06T11:46:40;6.40;99.90
23160;DHT22;11748;50.844;4.396;2024-01-06T11:49:07;6.40;99.90
23160;DHT22;11748;50.844;4.396;2024-01-06T11:51:35;6.50;99.90
23160;DHT22;11748;50.844;4.396;2024-01-06T11:54:01;6.30;99.90
23160;DHT22;11748;50.844;4.396;2024-01-06T11:56:26;6.30;99.90
23160;DHT22;11748;50.844;4.396;2024-01-06T11:58:52;6.40;99.90
23160;DHT22;11748;50.844;4.396;2024-01-06T12:01:18;6.50;99.90
23160;DHT22;11748;50.844;4.396;2024-01-06T12:03:44;6.70;99.90
23160;DHT22;11748;50.844;4.396;2024-01-06T12:06:09;6.60;99.90
23160;DHT22;11748;50.844;4.396;2024-01-06T12:08:35;6.60;99.90
23160;DHT22;11748;50.844;4.396;2024-01-06T12:11:04;6.60;99.90
23160;DHT22;11748;50.844;4.396;2024-01-06T12:13:32;6.50;99.90
23160;DHT22;11748;50.844;4.396;2024-01-06T12:15:58;6.40;99.90
23160;DHT22;11748;50.844;4.396;2024-01-06T12:18:25;6.30;99.90
23160;DHT22;11748;50.844;4.396;2024-01-06T12:20:51;6.20;99.90
23160;DHT22;11748;50.844;4.396;2024-01-06T12:23:25;6.30;99.90
23160;DHT22;11748;50.844;4.396;2024-01-06T12:25:51;6.30;99.90
23160;DHT22;11748;50.844;4.396;2024-01-06T12:28:17;6.30;99.90
23160;DHT22;11748;50.844;4.396;2024-01-06T12:30:44;6.30;99.90
23160;DHT22;11748;50.844;4.396;2024-01-06T12:33:10;6.20;99.90
23160;DHT22;11748;50.844;4.396;2024-01-06T12:35:36;6.30;99.90
23160;DHT22;11748;50.844;4.396;2024-01-06T12:38:03;6.40;99.90
23160;DHT22;11748;50.844;4.396;2024-01-06T12:40:31;6.50;99.90
23160;DHT22;11748;50.844;4.396;2024-01-06T12:42:57;6.60;99.90
23160;DHT22;11748;50.844;4.396;2024-01-06T12:45:23;6.50;99.90
23160;DHT22;11748;50.844;4.396;2024-01-06T12:47:48;6.60;99.90
23160;DHT22;11748;50.844;4.396;2024-01-06T12:50:15;6.60;99.90
23160;DHT22;11748;50.844;4.396;2024-01-06T12:52:41;6.60;99.90
23160;DHT22;11748;50.844;4.396;2024-01-06T12:55:07;6.70;99.90
23160;DHT22;11748;50.844;4.396;2024-01-06T12:57:33;6.60;99.90
23160;DHT22;11748;50.844;4.396;2024-01-06T12:59:59;6.80;99.90
23160;DHT22;11748;50.844;4.396;2024-01-06T13:02:25;6.70;99.90
23160;DHT22;11748;50.844;4.396;2024-01-06T13:04:50;6.70;99.90
23160;DHT22;11748;50.844;4.396;2024-01-06T13:07:16;6.80;99.90
23160;DHT22;11748;50.844;4.396;2024-01-06T13:09:42;6.70;99.90
23160;DHT22;11748;50.844;4.396;2024-01-06T13:12:08;6.60;99.90
23160;DHT22;11748;50.844;4.396;2024-01-06T13:14:34;6.50;99.90
23160;DHT22;11748;50.844;4.396;2024-01-06T13:17:01;6.60;99.90
23160;DHT22;11748;50.844;4.396;2024-01-06T13:19:27;6.70;99.90
23160;DHT22;11748;50.844;4.396;2024-01-06T13:21:52;6.70;99.90
23160;DHT22;11748;50.844;4.396;2024-01-06T13:24:18;6.80;99.90
23160;DHT22;11748;50.844;4.396;2024-01-06T13:26:44;6.70;99.90
23160;DHT22;11748;50.844;4.396;2024-01-06T13:29:09;6.80;99.90
23160;DHT22;11748;50.844;4.396;2024-01-06T13:31:36;6.70;99.90
23160;DHT22;11748;50.844;4.396;2024-01-06T13:34:02;6.60;99.90
23160;DHT22;11748;50.844;4.396;2024-01-06T13:36:28;6.70;99.90
23160;DHT22;11748;50.844;4.396;2024-01-06T13:38:54;6.60;99.90
23160;DHT22;11748;50.844;4.396;2024-01-06T13:41:19;6.60;99.90
23160;DHT22;11748;50.844;4.396;2024-01-06T13:43:45;6.50;99.90
23160;DHT22;11748;50.844;4.396;2024-01-06T13:46:11;6.60;99.90
23160;DHT22;11748;50.844;4.396;2024-01-06T13:48:40;6.50;99.90
23160;DHT22;11748;50.844;4.396;2024-01-06T13:51:06;6.70;99.90
23160;DHT22;11748;50.844;4.396;2024-01-06T13:53:32;6.80;99.90
23160;DHT22;11748;50.844;4.396;2024-01-06T13:55:58;6.80;99.90
23160;DHT22;11748;50.844;4.396;2024-01-06T13:58:24;6.80;99.90
23160;DHT22;11748;50.844;4.396;2024-01-06T14:00:50;6.80;99.90
23160;DHT22;11748;50.844;4.396;2024-01-06T14:03:15;6.60;99.90
23160;DHT22;11748;50.844;4.396;2024-01-06T14:05:41;6.60;99.90
23160;DHT22;11748;50.844;4.396;2024-01-06T14:08:07;6.90;99.90
23160;DHT22;11748;50.844;4.396;2024-01-06T14:10:33;6.90;99.90
23160;DHT22;11748;50.844;4.396;2024-01-06T14:12:58;6.80;99.90
23160;DHT22;11748;50.844;4.396;2024-01-06T14:15:24;6.80;99.90
23160;DHT22;11748;50.844;4.396;2024-01-06T14:17:52;6.80;99.90
23160;DHT22;11748;50.844;4.396;2024-01-06T14:20:18;6.70;99.90
23160;DHT22;11748;50.844;4.396;2024-01-06T14:22:47;6.60;99.90
23160;DHT22;11748;50.844;4.396;2024-01-06T14:25:15;6.60;99.90
23160;DHT22;11748;50.844;4.396;2024-01-06T14:27:43;6.60;99.90
23160;DHT22;11748;50.844;4.396;2024-01-06T14:30:09;6.60;99.90
23160;DHT22;11748;50.844;4.396;2024-01-06T14:32:38;6.80;99.90
23160;DHT22;11748;50.844;4.396;2024-01-06T14:35:05;6.60;99.90
23160;DHT22;11748;50.844;4.396;2024-01-06T14:37:32;6.70;99.90
23160;DHT22;11748;50.844;4.396;2024-01-06T14:39:58;6.60;99.90
23160;DHT22;11748;50.844;4.396;2024-01-06T14:42:24;6.70;99.90
23160;DHT22;11748;50.844;4.396;2024-01-06T14:44:49;6.50;99.90
23160;DHT22;11748;50.844;4.396;2024-01-06T14:47:15;6.60;99.90
23160;DHT22;11748;50.844;4.396;2024-01-06T14:49:41;6.60;99.90
23160;DHT22;11748;50.844;4.396;2024-01-06T14:52:06;6.60;99.90
23160;DHT22;11748;50.844;4.396;2024-01-06T14:54:34;6.80;99.90
23160;DHT22;11748;50.844;4.396;2024-01-06T14:57:01;6.90;99.90
23160;DHT22;11748;50.844;4.396;2024-01-06T14:59:26;6.80;99.90
23160;DHT22;11748;50.844;4.396;2024-01-06T15:01:52;6.60;99.90
23160;DHT22;11748;50.844;4.396;2024-01-06T15:04:18;6.40;99.90
23160;DHT22;11748;50.844;4.396;2024-01-06T15:06:45;6.60;99.90
23160;DHT22;11748;50.844;4.396;2024-01-06T15:09:11;6.30;99.90
23160;DHT22;11748;50.844;4.396;2024-01-06T15:11:37;6.30;99.90
23160;DHT22;11748;50.844;4.396;2024-01-06T15:14:02;6.30;99.90
23160;DHT22;11748;50.844;4.396;2024-01-06T15:16:30;6.30;99.90
23160;DHT22;11748;50.844;4.396;2024-01-06T15:18:56;6.40;99.90
23160;DHT22;11748;50.844;4.396;2024-01-06T15:21:24;6.40;99.90
23160;DHT22;11748;50.844;4.396;2024-01-06T15:23:53;6.30;99.90
23160;DHT22;11748;50.844;4.396;2024-01-06T15:26:24;6.30;99.90
23160;DHT22;11748;50.844;4.396;2024-01-06T15:28:50;6.20;99.90
23160;DHT22;11748;50.844;4.396;2024-01-06T15:31:16;6.20;99.90
23160;DHT22;11748;50.844;4.396;2024-01-06T15:33:42;6.10;99.90
23160;DHT22;11748;50.844;4.396;2024-01-06T15:36:08;6.00;99.90
23160;DHT22;11748;50.844;4.396;2024-01-06T15:38:34;6.20;99.90
23160;DHT22;11748;50.844;4.396;2024-01-06T15:41:00;6.20;99.90
23160;DHT22;11748;50.844;4.396;2024-01-06T15:43:26;6.30;99.90
23160;DHT22;11748;50.844;4.396;2024-01-06T15:45:52;6.30;99.90